Heat Index [SAI AWOS/ASOS Display]_________FAA Disclaimer: "Not for use in aviation at this time______________" Untitled Document
Hamilton Municipal Airport NY (VGC)
130
16:07
17/09/26
03
N/A
N/A
30.05
2900
1134
84(F), 29(C)
66(F), 19(C)
86 F
55%
CLR
10
N/A
N/A
N/A
16:07 zulu Wind 130 at 03 Knots, Altimeter 30.05
METAR KVGC 261607Z AUTO 13003KT 10SM CLR 29/19 A3005 A02
METAR:
FAA Disclaimer--Advisory Use ONLY, not for flight info--
INFO:
Wind Direction:
Wind Speed:
Wind Gust:
Wind Variable:
Altimeter:
Dens Alt:
Elev:
Temp:
Dwpt:
Heat Index
Rel Humidity:
Ceiling:
Visibility:
Prsnt Wea:
PCPN:
Remarks:
How to read the WebPage